Pritchett, Texas
Current Conditions -  °F | °C
As of 10:15 AM on Monday 22 Dec 2014 (Local Time) from KJDD Reporting Station
Overcast Overcast  
Wind Chill: 17°   Ceiling: 2200
Heat Index: 17°   Visibility: 10mi
Dew Point: 13°   Wind: 12mph
Humidity: 77%   Direction: 190°S
Pressure: 29.64"   Gusts: NA
Location:  32.6267°N, 95.0888°W
Report Text: KJDD 221615Z AUTO 19010KT 10SM BKN022 OVC029 17/13 A2964 RMK AO2
Loading
Personal Weather Stations






























Interactive Weather Map New forecast layout! Learn more

10-Day Weather Forecast

Advertisements
Track Severe Weather on mobile